WEATHER/FLIGHT PLANNING

Hattiesburg Radar

 

 

 

 

Weather Links

Flight Planning Links

 

METAR

2016/12/08 06:53 KHBG 080653Z AUTO 07004KT 10SM BKN030 11/08 A3020 RMK AO2 SLP225 T01060083

TAF

2016/12/08 06:28 TAF KHBG 080526Z 0806/0906 35004KT P6SM BKN035 FM080900 36005KT P6SM OVC015 FM081700 01013G19KT P6SM OVC100